createdAt,value
2023-03-29T00:00:43.541Z,5.80
2023-03-29T00:05:49.026Z,6.17
2023-03-29T00:10:56.936Z,6.40
2023-03-29T00:16:04.809Z,6.30
2023-03-29T00:21:10.347Z,6.50
2023-03-29T00:26:15.607Z,6.17
2023-03-29T00:31:23.369Z,5.67
2023-03-29T00:36:30.766Z,5.90
2023-03-29T00:41:35.832Z,4.80
2023-03-29T00:46:43.766Z,5.00
2023-03-29T00:51:49.008Z,4.93
2023-03-29T00:56:55.956Z,5.13
2023-03-29T01:02:07.314Z,5.40
2023-03-29T01:07:22.053Z,5.80
2023-03-29T01:12:32.879Z,5.33
2023-03-29T01:17:40.839Z,4.93
2023-03-29T01:23:00.867Z,5.27
2023-03-29T01:28:11.635Z,5.63
2023-03-29T01:33:23.721Z,5.10
2023-03-29T01:38:34.640Z,4.20
2023-03-29T01:43:48.931Z,4.80
2023-03-29T01:49:00.860Z,5.10
2023-03-29T01:54:10.877Z,4.30
2023-03-29T01:59:22.941Z,4.93
2023-03-29T02:04:34.576Z,4.33
2023-03-29T02:09:47.440Z,3.87
2023-03-29T02:14:57.321Z,4.07
2023-03-29T02:20:14.917Z,3.83
2023-03-29T02:25:22.872Z,3.90
2023-03-29T02:30:41.093Z,4.30
2023-03-29T02:35:53.489Z,3.93
2023-03-29T02:41:01.590Z,3.83
2023-03-29T02:46:13.873Z,4.70
2023-03-29T02:51:23.295Z,4.30
2023-03-29T02:56:33.870Z,3.83
2023-03-29T03:01:43.047Z,3.80
2023-03-29T03:06:48.487Z,4.00
2023-03-29T03:11:57.853Z,3.67
2023-03-29T03:17:09.027Z,4.60
2023-03-29T03:22:15.473Z,3.97
2023-03-29T03:27:21.162Z,4.83
2023-03-29T03:32:29.835Z,5.13
2023-03-29T03:38:08.781Z,4.07
2023-03-29T03:43:16.651Z,4.77
2023-03-29T03:48:28.203Z,4.17
2023-03-29T03:53:52.682Z,4.43
2023-03-29T03:59:11.220Z,4.73
2023-03-29T04:04:37.124Z,4.70
2023-03-29T04:09:52.821Z,3.70
2023-03-29T04:15:23.894Z,4.63
2023-03-29T04:20:42.740Z,4.50
2023-03-29T04:25:51.114Z,4.97
2023-03-29T04:31:15.946Z,5.47
2023-03-29T04:36:44.468Z,4.90
2023-03-29T04:42:00.528Z,5.20
2023-03-29T04:47:08.304Z,5.80
2023-03-29T04:52:36.869Z,6.23
2023-03-29T04:57:46.406Z,4.73
2023-03-29T05:02:59.728Z,4.67
2023-03-29T05:08:17.413Z,4.53
2023-03-29T05:13:45.461Z,4.87
2023-03-29T05:18:51.931Z,5.57
2023-03-29T05:24:00.749Z,5.13
2023-03-29T05:29:26.853Z,5.07
2023-03-29T05:34:46.339Z,5.17
2023-03-29T05:40:06.081Z,4.17
2023-03-29T05:45:19.304Z,5.83
2023-03-29T05:50:30.367Z,4.83
2023-03-29T05:55:41.534Z,5.97
2023-03-29T06:00:53.747Z,3.50
2023-03-29T06:06:24.906Z,4.27
2023-03-29T06:11:33.061Z,4.37
2023-03-29T06:16:55.325Z,5.23
2023-03-29T06:22:00.885Z,4.47
2023-03-29T06:27:10.024Z,4.67
2023-03-29T06:32:16.200Z,4.13
2023-03-29T06:37:39.652Z,4.37
2023-03-29T06:43:03.989Z,4.80
2023-03-29T06:48:18.032Z,4.17
2023-03-29T06:53:23.619Z,4.20
2023-03-29T06:58:45.571Z,4.13
2023-03-29T07:04:11.503Z,5.20
2023-03-29T07:09:54.109Z,4.33
2023-03-29T07:15:20.912Z,4.60
2023-03-29T07:20:49.682Z,4.70
2023-03-29T07:25:55.229Z,4.93
2023-03-29T07:31:10.137Z,4.80
2023-03-29T07:36:22.631Z,4.40
2023-03-29T07:41:28.902Z,4.87
2023-03-29T07:46:43.466Z,4.60
2023-03-29T07:51:49.473Z,5.37
2023-03-29T07:56:54.714Z,4.37
2023-03-29T08:02:14.211Z,5.03
2023-03-29T08:07:25.791Z,4.30
2023-03-29T08:12:32.060Z,4.70
2023-03-29T08:17:42.130Z,4.43
2023-03-29T08:22:50.577Z,4.47
2023-03-29T08:28:11.975Z,5.10
2023-03-29T08:33:30.677Z,5.10
2023-03-29T08:39:12.796Z,5.40
2023-03-29T08:44:35.569Z,4.63
2023-03-29T08:50:01.440Z,4.73
2023-03-29T08:55:32.317Z,5.57
2023-03-29T09:00:59.270Z,5.57
2023-03-29T09:06:15.059Z,5.40
2023-03-29T09:11:42.042Z,5.53
2023-03-29T09:16:58.691Z,4.53
2023-03-29T09:22:19.586Z,5.87
2023-03-29T09:27:31.760Z,6.40
2023-03-29T09:32:55.718Z,5.97
2023-03-29T09:38:15.261Z,4.90
2023-03-29T09:43:33.376Z,5.50
2023-03-29T09:48:46.786Z,6.00
2023-03-29T09:53:56.494Z,6.10
2023-03-29T09:59:37.236Z,5.80
2023-03-29T10:04:46.257Z,5.77
2023-03-29T10:10:16.248Z,6.23
2023-03-29T10:15:30.054Z,5.53
2023-03-29T10:20:39.163Z,5.73
2023-03-29T10:25:47.146Z,5.13
2023-03-29T10:30:59.510Z,5.47
2023-03-29T10:36:09.846Z,6.10
2023-03-29T10:41:22.302Z,6.30
2023-03-29T10:46:36.933Z,5.90
2023-03-29T10:51:50.815Z,5.93
2023-03-29T10:57:01.057Z,6.70
2023-03-29T11:02:33.664Z,7.13
2023-03-29T11:07:45.619Z,6.27
2023-03-29T11:12:59.874Z,7.20
2023-03-29T11:18:25.617Z,7.27
2023-03-29T11:23:45.055Z,8.33
2023-03-29T11:28:59.554Z,8.20
2023-03-29T11:34:18.399Z,7.77
2023-03-29T11:39:31.649Z,8.10
2023-03-29T11:44:47.025Z,7.60
2023-03-29T11:49:57.834Z,9.60
2023-03-29T11:55:10.227Z,8.50
2023-03-29T12:00:26.853Z,8.33
2023-03-29T12:05:37.694Z,10.00
2023-03-29T12:10:51.691Z,10.33
2023-03-29T12:16:10.764Z,9.67
2023-03-29T12:21:23.048Z,9.83
2023-03-29T12:26:44.940Z,10.50
2023-03-29T12:32:04.365Z,9.53
2023-03-29T12:37:32.664Z,10.30
2023-03-29T12:43:01.442Z,11.17
2023-03-29T12:48:43.336Z,11.47
2023-03-29T12:53:58.004Z,10.23
2023-03-29T12:59:30.552Z,9.90
2023-03-29T13:04:55.787Z,9.90
2023-03-29T13:10:10.871Z,9.20
2023-03-29T13:15:28.853Z,10.13
2023-03-29T13:20:49.094Z,10.50
2023-03-29T13:26:09.788Z,9.90
2023-03-29T13:31:28.494Z,10.97
2023-03-29T13:36:49.413Z,12.03
2023-03-29T13:41:57.534Z,11.37
2023-03-29T13:47:16.650Z,11.67
2023-03-29T13:52:30.929Z,11.13
2023-03-29T13:57:40.422Z,12.03
2023-03-29T14:02:50.418Z,12.10
2023-03-29T14:08:02.717Z,12.83
2023-03-29T14:13:08.310Z,11.70
2023-03-29T14:18:14.932Z,12.87
2023-03-29T14:23:25.708Z,12.17
2023-03-29T14:28:33.604Z,12.60
2023-03-29T14:33:38.927Z,11.53
2023-03-29T14:38:50.056Z,12.27
2023-03-29T14:43:58.559Z,12.17
2023-03-29T14:49:06.809Z,11.77
2023-03-29T14:54:22.564Z,10.70
2023-03-29T14:59:31.410Z,12.27
2023-03-29T15:04:37.632Z,11.13
2023-03-29T15:09:51.253Z,13.53
2023-03-29T15:14:57.541Z,11.10
2023-03-29T15:20:13.554Z,13.20
2023-03-29T15:25:23.208Z,10.70
2023-03-29T15:30:36.091Z,12.10
2023-03-29T15:35:43.142Z,12.70
2023-03-29T15:40:51.388Z,12.50
2023-03-29T15:45:56.730Z,13.10
2023-03-29T15:51:06.181Z,12.03
2023-03-29T15:56:23.245Z,10.67
2023-03-29T16:01:40.899Z,10.63
2023-03-29T16:06:48.797Z,10.33
2023-03-29T16:11:56.684Z,11.67
2023-03-29T16:17:05.119Z,12.43
2023-03-29T16:22:10.519Z,11.20
2023-03-29T16:27:18.180Z,12.03
2023-03-29T16:32:23.629Z,12.53
2023-03-29T16:37:28.714Z,12.80
2023-03-29T16:42:36.390Z,14.17
2023-03-29T16:47:44.494Z,14.20
2023-03-29T16:52:51.677Z,15.17
2023-03-29T16:57:59.322Z,14.47
2023-03-29T17:03:09.676Z,13.07
2023-03-29T17:08:15.611Z,14.57
2023-03-29T17:13:24.301Z,13.93
2023-03-29T17:18:35.394Z,13.03
2023-03-29T17:23:44.945Z,13.20
2023-03-29T17:28:54.001Z,12.07
2023-03-29T17:34:05.889Z,13.80
2023-03-29T17:39:11.272Z,12.67
2023-03-29T17:44:18.919Z,13.50
2023-03-29T17:49:24.251Z,13.00
2023-03-29T17:54:29.672Z,13.40
2023-03-29T17:59:38.154Z,12.83
2023-03-29T18:04:43.204Z,13.60
2023-03-29T18:09:48.296Z,14.10
2023-03-29T18:14:57.093Z,12.70
2023-03-29T18:20:02.080Z,11.47
2023-03-29T18:25:10.268Z,12.17
2023-03-29T18:30:19.568Z,11.23
2023-03-29T18:35:24.952Z,10.67
2023-03-29T18:40:31.344Z,9.60
2023-03-29T18:45:39.204Z,10.53
2023-03-29T18:50:46.736Z,10.73
2023-03-29T18:55:54.299Z,11.43
2023-03-29T19:01:07.139Z,11.40
2023-03-29T19:06:12.806Z,10.70
2023-03-29T19:11:20.210Z,9.80
2023-03-29T19:16:30.390Z,10.43
2023-03-29T19:21:35.682Z,11.23
2023-03-29T19:26:40.925Z,10.23
2023-03-29T19:31:48.947Z,10.70
2023-03-29T19:37:00.733Z,10.23
2023-03-29T19:42:06.954Z,10.93
2023-03-29T19:47:15.604Z,9.47
2023-03-29T19:52:24.155Z,10.13
2023-03-29T19:57:30.971Z,10.60
2023-03-29T20:02:39.085Z,10.23
2023-03-29T20:07:46.456Z,10.70
2023-03-29T20:12:51.673Z,10.77
2023-03-29T20:18:01.529Z,10.70
2023-03-29T20:23:06.819Z,10.67
2023-03-29T20:28:13.061Z,10.10
2023-03-29T20:33:23.384Z,9.80
2023-03-29T20:38:28.578Z,10.20
2023-03-29T20:43:37.931Z,10.57
2023-03-29T20:48:53.548Z,11.10
2023-03-29T20:54:02.726Z,10.80
2023-03-29T20:59:10.918Z,9.83
2023-03-29T21:04:21.331Z,10.83
2023-03-29T21:09:27.343Z,9.67
2023-03-29T21:14:34.850Z,10.40
2023-03-29T21:19:43.323Z,10.70
2023-03-29T21:24:50.728Z,9.70
2023-03-29T21:29:55.856Z,9.73
2023-03-29T21:35:04.393Z,10.40
2023-03-29T21:40:12.525Z,9.53
2023-03-29T21:45:19.926Z,9.50
2023-03-29T21:50:28.087Z,9.60
2023-03-29T21:55:33.129Z,8.87
2023-03-29T22:00:40.301Z,9.03
2023-03-29T22:05:58.347Z,9.43
2023-03-29T22:11:11.290Z,9.07
2023-03-29T22:16:19.498Z,9.23
2023-03-29T22:21:28.779Z,9.20
2023-03-29T22:26:35.361Z,8.93
2023-03-29T22:31:40.590Z,8.87
2023-03-29T22:36:48.511Z,8.87
2023-03-29T22:41:53.480Z,9.00
2023-03-29T22:46:58.669Z,8.77
2023-03-29T22:52:06.969Z,9.30
2023-03-29T22:57:12.032Z,8.60
2023-03-29T23:02:17.364Z,8.13
2023-03-29T23:07:24.986Z,8.23
2023-03-29T23:12:30.407Z,8.73
2023-03-29T23:17:35.659Z,8.67
2023-03-29T23:22:43.342Z,8.87
2023-03-29T23:27:48.323Z,7.97
2023-03-29T23:32:53.688Z,8.07
2023-03-29T23:38:01.774Z,8.50
2023-03-29T23:43:08.740Z,9.00
2023-03-29T23:48:13.770Z,8.20
2023-03-29T23:53:22.234Z,8.87
2023-03-29T23:58:29.949Z,8.30
